• Join FlightAware (Why Join?)
  • Login
  • US Flag 
03:53AM EST


 

Airport Tracker/Info


-or-


 

Live Flight TrackerFlight Track Log ✈ UAL4093 ✈ 08-Apr-2013 ✈ KRSW - KIAH

Flight Track Log - Related Links

Times and Time Zones

All times are in EDT time to prevent confusion due to time zone crossing. See the UAL4093 flight status page for this flight to view local times or setup timezone preferences in your user account.

Time Position Orientation Groundspeed Altitude Reporting Facility
EDT Latitude Longitude Course Direction KTS MPH feet Rate Location/Type
05:24PM 26.8246 -81.7333 North  Level FlightAware Approximate
05:24PM 26.6739 -81.7219 336° Northwest 224 258 5,000  Level Miami Center
05:25PM 26.9221 -81.7333 360° North  Level FlightAware Approximate
05:25PM 26.7489 -81.7275 356° North 241 277 7,400  Level Miami Center
05:26PM 27.0194 -81.7344 340° North  Level FlightAware Approximate
05:26PM 26.8258 -81.7331 356° North 261 300 9,600  Level Miami Center
05:27PM 27.1116 -81.7696 347° North  Level FlightAware Approximate
05:27PM 26.9072 -81.7386 357° North 279 321 10,900  Level Miami Center
05:28PM 27.2061 -81.7965 343° North  Level FlightAware Approximate
05:28PM 26.9986 -81.7472 355° North 306 352 12,600  Level Miami Center
05:29PM 27.2980 -81.8323 336° Northwest  Level FlightAware Approximate
05:29PM 27.0858 -81.7647 350° North 319 367 15,100  Level Miami Center
05:30PM 27.1703 -81.7942 343° North 319 367 16,900 1,380 Climbing Miami Center
05:31PM 27.2592 -81.8236 344° North 313 360 17,900 1,020 Climbing Miami Center
05:32PM 27.3500 -81.8508 345° North 333 383 19,000 1,020 Climbing Miami Center
05:33PM 27.4467 -81.8878 341° North 347 399 20,000 900 Climbing Miami Center
05:34PM 27.5353 -81.9197 342° North 363 418 20,900 900 Climbing Miami Center
05:35PM 27.6383 -81.9572 342° North 370 426 21,800 900 Climbing Miami Center
05:36PM 27.8025 -82.0081 345° North 381 438 23,300 960 Climbing Jacksonville Center
05:37PM 27.9153 -82.0119 358° North 386 444 24,300 900 Climbing Jacksonville Center
05:38PM 28.0197 -82.0367 348° North 391 450 25,200 900 Climbing Jacksonville Center
05:39PM 28.1183 -82.0972 332° Northwest 391 450 26,200 960 Climbing Jacksonville Center
05:40PM 28.2147 -82.1600 330° Northwest 396 456 27,200 900 Climbing Jacksonville Center
05:41PM 28.3108 -82.2183 332° Northwest 396 456 28,100 900 Climbing Jacksonville Center
05:42PM 28.4050 -82.2789 331° Northwest 396 456 29,100 900 Climbing Jacksonville Center
05:43PM 28.4972 -82.3375 331° Northwest 391 450 30,000 900 Climbing Jacksonville Center
05:44PM 28.5872 -82.3986 329° Northwest 385 443 31,000 900 Climbing Jacksonville Center
05:45PM 28.6522 -82.4856 310° West 378 435 31,900 960 Climbing Jacksonville Center
05:46PM 28.7108 -82.5919 302° West 359 413 33,000 960 Climbing Jacksonville Center
05:47PM 28.7633 -82.6911 301° West 364 419 33,900 900 Climbing Jacksonville Center
05:48PM 28.8156 -82.7883 302° West 364 419 34,800 840 Climbing Jacksonville Center
05:49PM 28.8617 -82.8711 302° West 359 413 35,600 600 Climbing Jacksonville Center
05:50PM 28.9136 -82.9686 301° West 354 407 36,000 180 Climbing Jacksonville Center
05:51PM 28.9636 -83.0658 300° West 354 407 36,000  Level Jacksonville Center
05:52PM 29.0200 -83.1681 302° West 364 419 36,000  Level Jacksonville Center
05:53PM 29.0761 -83.2750 301° West 377 434 36,000  Level Jacksonville Center
05:54PM 29.1319 -83.3800 301° West 382 440 36,000  Level Jacksonville Center
05:55PM 29.1878 -83.4872 301° West 382 440 36,000 -60 Level Jacksonville Center
05:56PM 29.2478 -83.5947 303° West 387 445 35,900  Descending Jacksonville Center
05:57PM 29.3036 -83.7000 301° West 387 445 36,000  Climbing Jacksonville Center
05:58PM 29.3592 -83.8053 301° West 387 445 36,000  Level Jacksonville Center
05:59PM 29.4169 -83.9131 302° West 387 445 36,000  Level Jacksonville Center
06:00PM 29.4744 -84.0208 302° West 387 445 36,000  Level Jacksonville Center
06:01PM 29.5319 -84.1267 302° West 392 451 36,000  Level Jacksonville Center
06:02PM 29.5850 -84.2372 299° West 392 451 36,000  Level Jacksonville Center
06:03PM 29.6425 -84.3456 301° West 392 451 36,000  Level Jacksonville Center
06:04PM 29.6994 -84.4564 301° West 398 458 36,000  Level Jacksonville Center
06:05PM 29.7647 -84.5744 303° West 403 464 36,000  Level Jacksonville Center
06:06PM 29.8239 -84.6881 301° West 408 470 36,000  Level Jacksonville Center
06:07PM 29.8806 -84.8017 300° West 408 470 36,000  Level Jacksonville Center
06:08PM 29.9394 -84.9181 300° West 414 476 36,000  Level Jacksonville Center
06:09PM 29.9981 -85.0294 301° West 409 471 36,000  Level Jacksonville Center
06:10PM 30.0544 -85.1436 300° West 409 471 36,000  Level Jacksonville Center
06:11PM 30.1131 -85.2553 301° West 409 471 36,000  Level Jacksonville Center
06:12PM 30.1736 -85.3697 301° West 409 471 36,000  Level Jacksonville Center
06:13PM 30.2217 -85.4767 297° West 409 471 36,000  Level Jacksonville Center
06:14PM 30.2881 -85.5964 303° West 409 471 36,000  Level Jacksonville Center
06:15PM 30.3400 -85.6989 300° West 507 583 36,000  Level Jacksonville Center
06:16PM 30.3917 -85.8161 297° West 429 494 36,000 -60 Level Jacksonville Center
06:17PM 30.3992 -85.9414 274° West 403 464 35,900  Descending Jacksonville Center
06:18PM 30.4003 -86.0717 271° West 403 464 36,000  Climbing Jacksonville Center
06:19PM 30.4031 -86.2017 271° West 403 464 36,000  Level Jacksonville Center
06:20PM 30.4061 -86.3294 272° West 403 464 36,000  Level Jacksonville Center
06:21PM 30.4086 -86.4572 271° West 403 464 36,000  Level Jacksonville Center
06:22PM 30.4092 -86.5847 270° West 403 464 36,000  Level Jacksonville Center
06:23PM 30.4097 -86.7125 270° West 403 464 36,000  Level Jacksonville Center
06:24PM 30.4119 -86.8425 271° West 403 464 36,000  Level Jacksonville Center
06:25PM 30.4142 -86.9703 271° West 403 464 36,000  Level Jacksonville Center
06:26PM 30.4142 -87.0981 270° West 403 464 36,000  Level Jacksonville Center
06:27PM 30.4161 -87.2256 271° West 403 464 36,000  Level Jacksonville Center
06:28PM 30.4161 -87.3508 270° West 403 464 36,000  Level Jacksonville Center
06:30PM 30.4186 -87.6064 271° West 398 458 36,000  Level Houston Center
06:31PM 30.4192 -87.7356 270° West 399 459 36,000  Level Houston Center
06:32PM 30.4200 -87.8650 270° West 401 461 36,000  Level Houston Center
06:33PM 30.4197 -87.9953 270° West 402 463 36,000  Level Houston Center
06:34PM 30.4194 -88.1253 270° West 402 463 36,000  Level Houston Center
06:35PM 30.4189 -88.2819 270° West 403 464 36,000  Level Houston Center
06:36PM 30.4192 -88.4131 270° West 404 465 36,000  Level Houston Center
06:37PM 30.4186 -88.5433 270° West 403 464 36,000  Level Houston Center
06:38PM 30.4181 -88.6719 270° West 400 460 36,000  Level Houston Center
06:39PM 30.4172 -88.8014 270° West 399 459 36,000  Level Houston Center
06:40PM 30.4161 -88.9317 269° West 402 463 36,000  Level Houston Center
06:41PM 30.4194 -89.0603 272° West 402 463 36,000  Level Houston Center
06:43PM 30.4169 -89.2156 269° West 401 461 36,000  Level Houston Center
06:44PM 30.3878 -89.3383 255° West 396 456 36,000  Level Houston Center
06:45PM 30.3456 -89.4578 248° West 398 458 36,000  Level Houston Center
06:46PM 30.3028 -89.5778 248° West 400 460 36,000  Level Houston Center
06:47PM 30.2581 -89.7003 247° West 406 467 36,000  Level Houston Center
06:48PM 30.2150 -89.8258 248° West 406 467 36,000  Level Houston Center
06:49PM 30.1714 -89.9481 248° West 406 467 36,000  Level Houston Center
06:50PM 30.1297 -90.0678 248° West 404 465 36,000  Level Houston Center
06:51PM 30.0775 -90.2128 247° West 407 468 36,000  Level Houston Center
06:52PM 30.0342 -90.3325 247° West 405 466 36,000  Level Houston Center
06:53PM 29.9908 -90.4528 247° West 405 466 36,000  Level Houston Center
06:54PM 29.9469 -90.5714 247° West 404 465 36,000  Level Houston Center
06:55PM 29.9050 -90.6897 248° West 400 460 36,000  Level Houston Center
06:56PM 29.8619 -90.8078 247° West 399 459 36,000  Level Houston Center
06:57PM 29.8189 -90.9256 247° West 400 460 36,000  Level Houston Center
06:58PM 29.7658 -91.0669 247° West 400 460 36,000  Level Houston Center
06:59PM 29.7244 -91.1814 247° West 391 450 36,000  Level Houston Center
07:00PM 29.6828 -91.2964 247° West 389 448 36,000  Level Houston Center
07:01PM 29.6400 -91.4114 247° West 391 450 36,000  Level Houston Center
07:02PM 29.6092 -91.5325 254° West 399 459 36,000  Level Houston Center
07:03PM 29.5906 -91.6553 260° West 392 451 36,000  Level Houston Center
07:04PM 29.5683 -91.7842 259° West 387 445 36,000  Level Houston Center
07:05PM 29.5494 -91.9056 260° West 387 445 36,000  Level Houston Center
07:06PM 29.5250 -92.0497 259° West 385 443 36,000  Level Houston Center
07:07PM 29.5050 -92.1692 259° West 382 440 36,000  Level Houston Center
07:08PM 29.4847 -92.2900 259° West 384 442 36,000  Level Houston Center
07:09PM 29.4642 -92.4103 259° West 385 443 36,000  Level Houston Center
07:10PM 29.4600 -92.5361 268° West 395 455 36,000  Level Houston Center
07:11PM 29.4656 -92.6644 273° West 403 464 36,000  Level Houston Center
07:12PM 29.4719 -92.7928 273° West 401 461 36,000  Level Houston Center
07:13PM 29.4789 -92.9444 273° West 398 458 36,000 -840 Level Houston Center
07:15PM 29.4833 -93.0711 272° West 397 457 34,300 -2,040 Descending Houston Center
07:16PM 29.4900 -93.1992 273° West 399 459 31,800 -2,340 Descending Houston Center
07:17PM 29.4944 -93.3306 272° West 410 472 29,500 -2,220 Descending Houston Center
07:18PM 29.5008 -93.4611 273° West 409 471 27,300 -2,220 Descending Houston Center
07:19PM 29.5061 -93.5936 273° West 415 478 25,000 -2,220 Descending Houston Center
07:20PM 29.5100 -93.7225 272° West 408 470 22,800 -2,400 Descending Houston Center
07:21PM 29.5156 -93.8742 272° West 397 457 20,100 -2,400 Descending Houston Center
07:22PM 29.5194 -93.9928 272° West 376 433 17,900 -2,040 Descending Houston Center
07:23PM 29.5253 -94.1106 273° West 371 427 15,900 -2,040 Descending Houston Center
07:23PM 29.5269 -94.1875 271° West 363 418 14,600 -1,800 Descending Houston Center
07:24PM 29.5283 -94.2167 273° West 364 419 14,100 -1,620 Descending Houston Center
07:24PM 29.5306 -94.3072 272° West 359 413 13,000 -1,080 Descending Houston Center
07:25PM 29.5356 -94.3508 278° West 349 402 13,000  Level Houston Center
07:25PM 29.5594 -94.4067 296° West 351 404 13,000 -540 Level Houston Center
07:26PM 29.5783 -94.4500 297° West 351 404 12,500 -1,140 Descending Houston Center
07:26PM 29.6033 -94.5117 295° West 348 400 11,900 -1,140 Descending Houston Center
07:27PM 29.6200 -94.5489 297° West 347 399 11,400 -1,140 Descending Houston Center
07:27PM 29.6467 -94.6119 296° West 346 398 10,800 -1,020 Descending Houston Center
07:28PM 29.6625 -94.6475 297° West 346 398 10,400 -840 Descending Houston Center
07:28PM 29.6878 -94.7103 295° West 343 395 10,000 -300 Descending Houston Center
07:29PM 29.7042 -94.7464 298° West 345 397 10,100 60 Climbing Houston Center
07:29PM 29.7308 -94.8083 296° West 343 395 10,100 -120 Level Houston Center
07:30PM 29.7458 -94.8433 296° West 342 394 10,000  Descending Houston Center
07:30PM 29.7717 -94.9042 296° West 337 388 10,100 60 Climbing Houston Center
07:31PM 29.7942 -94.9583 296° West 337 388 10,100  Level Houston Center
07:32PM 29.8153 -95.0097 295° West 337 388 10,100 -120 Level Houston Center
07:32PM 29.8350 -95.0542 297° West 338 389 10,000 -1,140 Descending Houston Center
07:33PM 29.8528 -95.0964 296° West 288 331 9,000 -2,040 Descending Houston Center
07:33PM 29.8694 -95.1353 296° West 291 335 7,900 -2,400 Descending Houston Center
07:34PM 29.8878 -95.1789 296° West 284 327 6,600 -1,800 Descending Houston Center
07:34PM 29.9006 -95.2164 291° West 282 325 6,100 -360 Descending Houston Center
07:35PM 29.8994 -95.3008 269° West 267 307 6,100  Level Houston Center
07:36PM 29.8997 -95.3558 270° West 272 313 6,100 -120 Level Houston Center
07:36PM 29.8997 -95.4075 270° West 272 313 6,000  Descending Houston Center
07:37PM 29.8994 -95.4428 269° West 235 270 6,100 -120 Climbing Houston Center
07:37PM 29.9000 -95.4808 271° West 248 285 5,900 -900 Descending Houston Center
07:38PM 29.8997 -95.5172 270° West 232 267 5,200 -1,260 Descending Houston Center
07:38PM 29.9006 -95.5550 271° West 235 270 4,600 -1,140 Descending Houston Center
07:39PM 29.9003 -95.5919 270° West 230 265 4,100 -600 Descending Houston Center
07:39PM 29.9019 -95.6269 273° West 229 264 4,000  Descending Houston Center
07:40PM 29.9300 -95.6414 336° Northwest 236 272 4,100  Climbing Houston Center
07:40PM 29.9597 -95.6392 North 224 258 4,000 -300 Descending Houston Center
07:41PM 29.9781 -95.6164 47° Northeast 187 215 3,800 -540 Descending Houston Center
07:41PM 29.9911 -95.5903 60° Northeast 192 221 3,500 -540 Descending Houston Center
07:42PM 29.9944 -95.5639 82° East 161 185 3,300 -540 Descending Houston Center
07:42PM 29.9939 -95.5289 91° East 168 193 3,000 -600 Descending Houston Center
07:43PM 29.9936 -95.5086 91° East 164 189 2,700 -780 Descending Houston Center
07:43PM 29.9933 -95.4781 91° East 161 185 2,200 -840 Descending Houston Center
07:44PM 29.9936 -95.4628 89° East 133 153 1,900 -720 Descending Houston Center
07:44PM 30.0014 -95.4364 71° East 151 174 1,500 -600 Descending Houston Center
07:45PM 30.0064 -95.4203 70° East 141 162 1,300 -660 Descending Houston Center